Time;durP1;ratioP1;P1;durP2;ratioP2;P2;SDS_P1;SDS_P2;PMS_P1;PMS_P2;Temp;Humidity;BMP_temperature;BMP_pressure;BME280_temperature;BME280_humidity;BME280_pressure;Samples;Min_cycle;Max_cycle;Signal;HPM_P1;HPM_P2
2023/08/06 00:02:04;;;;;;;6.18;5.00;;;;;;;25.62;81.46;98832.22;5091728;28;20494;-72
2023/08/06 00:04:33;;;;;;;6.88;5.32;;;;;;;25.61;81.40;98831.41;5092007;28;20048;-72
2023/08/06 00:07:01;;;;;;;7.18;5.40;;;;;;;25.61;81.26;98836.84;5092204;28;20044;-73
2023/08/06 00:09:29;;;;;;;6.35;5.15;;;;;;;25.58;81.40;98833.75;5092246;28;20056;-72
2023/08/06 00:11:59;;;;;;;7.20;5.07;;;;;;;25.60;81.23;98845.28;5091803;28;20134;-73
2023/08/06 00:14:28;;;;;;;7.10;5.30;;;;;;;25.60;81.61;98850.75;5091692;28;20090;-73
2023/08/06 00:16:57;;;;;;;6.78;4.93;;;;;;;25.58;81.29;98853.69;5091862;28;20084;-73
2023/08/06 00:19:25;;;;;;;6.15;5.13;;;;;;;25.59;81.16;98862.72;5091439;28;20048;-73
2023/08/06 00:21:56;;;;;;;6.75;5.20;;;;;;;25.58;81.15;98859.16;5092077;28;20044;-73
2023/08/06 00:24:24;;;;;;;6.40;4.97;;;;;;;25.57;81.39;98862.09;5091486;28;20047;-73
2023/08/06 00:26:52;;;;;;;6.85;4.57;;;;;;;25.57;81.13;98862.91;5091326;28;20097;-73
2023/08/06 00:29:22;;;;;;;5.63;4.60;;;;;;;25.56;81.17;98854.94;5091458;28;20078;-73
2023/08/06 00:31:50;;;;;;;5.80;4.47;;;;;;;25.56;81.31;98855.78;5090498;28;20083;-73
2023/08/06 00:34:19;;;;;;;6.10;4.90;;;;;;;25.55;81.10;98851.38;5091670;28;20079;-74
2023/08/06 00:36:47;;;;;;;6.10;4.88;;;;;;;25.55;81.24;98848.66;5091886;28;20116;-73
2023/08/06 00:39:17;;;;;;;5.55;4.78;;;;;;;25.54;81.24;98833.34;5091400;28;20137;-74
2023/08/06 00:41:47;;;;;;;6.13;5.10;;;;;;;25.52;81.59;98819.09;5091225;28;20044;-74
2023/08/06 00:44:16;;;;;;;6.85;5.18;;;;;;;25.52;81.33;98802.72;5091664;28;20055;-73
2023/08/06 00:46:45;;;;;;;6.47;5.07;;;;;;;25.51;81.14;98798.31;5091562;28;20063;-73
2023/08/06 00:49:14;;;;;;;6.20;4.82;;;;;;;25.51;81.39;98820.16;5091561;28;20054;-74
2023/08/06 00:51:43;;;;;;;6.07;4.65;;;;;;;25.51;81.68;98814.69;5090975;28;20094;-73
2023/08/06 00:54:11;;;;;;;5.40;4.15;;;;;;;25.51;81.42;98798.31;5091048;28;20044;-73
2023/08/06 00:56:41;;;;;;;6.90;4.65;;;;;;;25.50;81.32;98788.44;5091471;28;20146;-72
2023/08/06 00:59:11;;;;;;;6.35;4.15;;;;;;;25.49;81.49;98786.78;5091055;28;20469;-73
2023/08/06 01:01:40;;;;;;;7.28;4.35;;;;;;;25.49;81.45;98780.50;5095912;28;20082;-73
2023/08/06 01:04:10;;;;;;;5.55;4.78;;;;;;;25.48;82.02;98785.13;5090209;28;20062;-73
2023/08/06 01:06:48;;;;;;;6.38;4.82;;;;;;;25.48;81.54;98789.72;5090682;28;20052;-72
2023/08/06 01:09:36;;;;;;;6.18;4.63;;;;;;;25.46;81.37;98795.41;5090411;28;20077;-72
2023/08/06 01:12:26;;;;;;;6.03;4.93;;;;;;;25.46;81.63;98789.94;5090276;28;20085;-73
2023/08/06 01:15:01;;;;;;;6.18;4.65;;;;;;;25.47;81.60;98783.41;5090382;28;20465;-72
2023/08/06 01:17:31;;;;;;;6.38;4.78;;;;;;;25.46;81.53;98781.75;5090910;28;20390;-73
2023/08/06 01:20:01;;;;;;;5.63;4.55;;;;;;;25.46;81.68;98779.03;5090994;28;20177;-72
2023/08/06 01:22:31;;;;;;;6.65;4.70;;;;;;;25.46;81.61;98773.56;5090609;28;20044;-72
2023/08/06 01:25:00;;;;;;;5.80;4.50;;;;;;;25.45;81.53;98771.06;5090264;28;20499;-72
2023/08/06 01:27:34;;;;;;;5.57;4.15;;;;;;;25.45;81.81;98771.91;5090312;28;20091;-71
2023/08/06 01:30:10;;;;;;;6.07;4.68;;;;;;;25.42;81.73;98764.16;5090616;28;20083;-71
2023/08/06 01:32:42;;;;;;;6.50;4.90;;;;;;;25.42;81.40;98769.63;5090445;28;20143;-73
2023/08/06 01:35:12;;;;;;;6.20;4.60;;;;;;;25.41;81.71;98765.22;5090627;28;20047;-73
2023/08/06 01:37:44;;;;;;;5.22;3.95;;;;;;;25.40;81.37;98766.28;5090323;28;20049;-72
2023/08/06 01:40:14;;;;;;;6.03;3.90;;;;;;;25.41;81.51;98765.22;5090221;28;20141;-72
2023/08/06 01:42:42;;;;;;;5.50;4.05;;;;;;;25.40;81.60;98756.22;5090323;28;20153;-72
2023/08/06 01:45:11;;;;;;;5.53;4.10;;;;;;;25.40;82.00;98752.66;5088843;28;20083;-72
2023/08/06 01:47:39;;;;;;;5.68;4.00;;;;;;;25.40;81.72;98758.94;5090154;28;20404;-73
2023/08/06 01:50:10;;;;;;;5.72;4.32;;;;;;;25.40;81.66;98749.91;5090140;28;20050;-73
2023/08/06 01:52:39;;;;;;;4.75;3.72;;;;;;;25.39;81.74;98745.53;5089989;28;20051;-73
2023/08/06 01:55:11;;;;;;;4.93;3.92;;;;;;;25.39;81.88;98745.53;5090290;28;20041;-73
2023/08/06 01:57:39;;;;;;;5.95;4.03;;;;;;;25.38;81.66;98735.63;5089099;28;20067;-73
2023/08/06 02:00:09;;;;;;;5.22;3.90;;;;;;;25.37;81.76;98720.31;5090097;28;20047;-71
2023/08/06 02:02:37;;;;;;;5.05;3.85;;;;;;;25.36;81.77;98721.38;5088904;28;20049;-73
2023/08/06 02:05:06;;;;;;;4.88;3.85;;;;;;;25.35;81.63;98717.81;5090046;28;20054;-72
2023/08/06 02:07:36;;;;;;;5.10;3.75;;;;;;;25.35;82.22;98711.53;5090579;28;20146;-72
2023/08/06 02:10:07;;;;;;;4.82;3.70;;;;;;;25.36;82.05;98715.94;5089729;28;20565;-73
2023/08/06 02:12:41;;;;;;;5.03;3.72;;;;;;;25.35;81.73;98700.63;5090088;28;20056;-73
2023/08/06 02:15:10;;;;;;;6.50;4.03;;;;;;;25.36;82.08;98699.56;5090452;28;20051;-72
2023/08/06 02:17:38;;;;;;;4.70;3.72;;;;;;;25.34;82.13;98705.25;5093681;28;20585;-73
2023/08/06 02:20:09;;;;;;;4.82;3.70;;;;;;;25.33;82.04;98694.56;5094060;28;20044;-72
2023/08/06 02:22:40;;;;;;;4.95;3.50;;;;;;;25.35;82.13;98695.16;5093434;28;20411;-72
2023/08/06 02:25:11;;;;;;;4.95;3.60;;;;;;;25.34;81.96;98693.50;5093615;28;20426;-72
2023/08/06 02:27:41;;;;;;;4.97;3.65;;;;;;;25.34;82.09;98690.75;5093939;28;20050;-73
2023/08/06 02:30:09;;;;;;;4.80;3.63;;;;;;;25.32;81.83;98681.97;5093530;28;20485;-73
2023/08/06 02:32:37;;;;;;;5.00;3.35;;;;;;;25.32;82.13;98684.69;5093342;28;20048;-71
2023/08/06 02:35:06;;;;;;;4.75;3.45;;;;;;;25.29;81.91;98672.34;5093899;28;20055;-72
2023/08/06 02:37:35;;;;;;;4.40;3.20;;;;;;;25.30;81.69;98676.75;5093626;28;20447;-72
2023/08/06 02:40:04;;;;;;;4.70;3.47;;;;;;;25.30;81.98;98670.44;5094255;28;20047;-72
2023/08/06 02:42:32;;;;;;;5.10;3.30;;;;;;;25.29;81.59;98666.06;5100231;28;20044;-72
2023/08/06 02:45:09;;;;;;;4.43;3.42;;;;;;;25.29;81.89;98668.78;5096370;28;20127;-72
2023/08/06 02:47:37;;;;;;;4.47;3.47;;;;;;;25.24;81.79;98658.53;5093992;28;20048;-72
2023/08/06 02:50:06;;;;;;;4.70;3.55;;;;;;;25.28;81.63;98673.38;5093695;28;20085;-72
2023/08/06 02:52:34;;;;;;;6.13;3.58;;;;;;;25.27;81.81;98676.34;5093594;28;20048;-73
2023/08/06 02:55:03;;;;;;;4.55;3.45;;;;;;;25.27;82.05;98671.72;5093532;28;20527;-73
2023/08/06 02:57:31;;;;;;;4.80;3.40;;;;;;;25.27;82.09;98674.44;5093374;28;20048;-73
2023/08/06 03:00:00;;;;;;;5.30;3.45;;;;;;;25.27;81.68;98670.88;5093134;28;20052;-73
2023/08/06 03:02:29;;;;;;;4.38;3.28;;;;;;;25.25;82.19;98665.66;5092071;28;20062;-72
2023/08/06 03:04:57;;;;;;;4.75;3.40;;;;;;;25.24;81.83;98660.44;5092878;28;20064;-72
2023/08/06 03:07:28;;;;;;;4.50;3.35;;;;;;;25.25;82.14;98662.09;5093129;28;20158;-72
2023/08/06 03:09:56;;;;;;;5.07;3.45;;;;;;;25.25;81.95;98675.72;5092937;28;20051;-72
2023/08/06 03:12:24;;;;;;;4.40;3.60;;;;;;;25.25;81.92;98662.09;5092992;28;20131;-72
2023/08/06 03:14:52;;;;;;;4.25;3.20;;;;;;;25.24;81.62;98660.44;5093164;28;20048;-72
2023/08/06 03:17:20;;;;;;;4.53;3.30;;;;;;;25.23;81.36;98662.31;5092944;28;20055;-72
2023/08/06 03:19:53;;;;;;;4.78;3.33;;;;;;;25.21;81.37;98655.44;5092754;28;20047;-71
2023/08/06 03:22:21;;;;;;;4.57;3.30;;;;;;;25.22;81.62;98659.81;5092902;28;20077;-72
2023/08/06 03:24:55;;;;;;;5.03;3.75;;;;;;;25.20;81.29;98659.22;5093142;28;20430;-73
2023/08/06 03:27:23;;;;;;;5.05;3.65;;;;;;;25.21;81.58;98655.44;5090507;28;20047;-73
2023/08/06 03:29:52;;;;;;;4.22;3.33;;;;;;;25.21;81.73;98663.63;5092566;28;20048;-73
2023/08/06 03:32:20;;;;;;;5.35;3.38;;;;;;;25.20;81.26;98661.94;5092468;28;20343;-72
2023/08/06 03:34:50;;;;;;;4.55;3.63;;;;;;;25.21;81.50;98666.34;5092590;28;20048;-73
2023/08/06 03:37:18;;;;;;;4.10;3.10;;;;;;;25.18;81.11;98655.84;5092384;28;20051;-73
2023/08/06 03:39:47;;;;;;;5.70;3.35;;;;;;;25.19;81.20;98660.25;5092526;28;20060;-72
2023/08/06 03:42:15;;;;;;;4.90;3.30;;;;;;;25.19;81.04;98660.25;5092699;28;20127;-73
2023/08/06 03:44:43;;;;;;;4.63;3.35;;;;;;;25.18;80.91;98656.69;5092455;28;20087;-72
2023/08/06 03:47:11;;;;;;;4.30;3.00;;;;;;;25.18;81.11;98651.22;5092657;28;20048;-72
2023/08/06 03:49:43;;;;;;;5.68;3.40;;;;;;;25.16;81.06;98653.34;5092232;28;20084;-72
2023/08/06 03:52:12;;;;;;;4.45;3.15;;;;;;;25.17;80.75;98656.91;5092142;28;20138;-73
2023/08/06 03:54:42;;;;;;;4.05;2.88;;;;;;;25.17;80.79;98656.91;5092080;28;20481;-73
2023/08/06 03:57:11;;;;;;;4.47;3.00;;;;;;;25.16;80.65;98649.81;5092219;28;20062;-70
2023/08/06 03:59:39;;;;;;;5.28;3.28;;;;;;;25.15;80.38;98648.13;5091945;28;20046;-73
2023/08/06 04:02:16;;;;;;;4.25;2.92;;;;;;;25.14;80.44;98650.03;5090834;28;20043;-74
2023/08/06 04:04:44;;;;;;;4.45;3.10;;;;;;;25.13;80.23;98650.25;5092089;28;20083;-73
2023/08/06 04:07:14;;;;;;;3.95;2.60;;;;;;;25.11;80.26;98650.50;5091856;28;20113;-73
2023/08/06 04:09:56;;;;;;;4.28;2.88;;;;;;;25.12;80.00;98654.88;5091804;28;20056;-73
2023/08/06 04:12:24;;;;;;;4.10;2.90;;;;;;;25.11;79.71;98647.75;5091818;28;20055;-72
2023/08/06 04:14:53;;;;;;;4.13;2.90;;;;;;;25.10;79.86;98644.19;5092225;28;20044;-73
2023/08/06 04:17:22;;;;;;;4.43;2.83;;;;;;;25.09;79.89;98642.53;5091790;28;20079;-72
2023/08/06 04:19:52;;;;;;;3.50;2.50;;;;;;;25.07;80.28;98633.72;5091855;28;20044;-72
2023/08/06 04:22:22;;;;;;;4.32;2.78;;;;;;;25.07;79.94;98631.00;5091554;28;20589;-72
2023/08/06 04:24:52;;;;;;;3.67;2.70;;;;;;;25.06;79.30;98629.31;5095749;28;20079;-72
2023/08/06 04:27:20;;;;;;;3.63;2.45;;;;;;;25.03;80.12;98627.06;5093816;28;20043;-72
2023/08/06 04:29:49;;;;;;;3.63;2.40;;;;;;;25.03;80.13;98631.69;5091691;28;20059;-72
2023/08/06 04:32:19;;;;;;;3.60;2.53;;;;;;;25.00;80.87;98641.13;5091503;28;20084;-72
2023/08/06 04:34:47;;;;;;;3.72;2.40;;;;;;;24.98;80.85;98640.47;5091083;28;20477;-73
2023/08/06 04:37:16;;;;;;;3.20;2.35;;;;;;;24.97;80.25;98632.53;5091134;28;20645;-72
2023/08/06 04:39:45;;;;;;;4.00;2.42;;;;;;;24.96;80.32;98634.44;5091110;28;20043;-71
2023/08/06 04:42:15;;;;;;;3.85;2.53;;;;;;;24.96;80.29;98634.44;5091010;28;20047;-71
2023/08/06 04:44:43;;;;;;;3.92;2.42;;;;;;;24.95;80.52;98632.75;5091148;28;20442;-73
2023/08/06 04:47:11;;;;;;;3.58;2.15;;;;;;;24.94;80.09;98639.28;5091193;28;20381;-73
2023/08/06 04:49:39;;;;;;;3.45;2.20;;;;;;;24.92;80.00;98635.09;5091328;28;20127;-73
2023/08/06 04:52:08;;;;;;;3.53;2.28;;;;;;;24.91;80.27;98634.28;5091138;28;20048;-73
2023/08/06 04:54:36;;;;;;;3.45;2.35;;;;;;;24.89;80.39;98635.53;5090717;28;20138;-72
2023/08/06 04:57:06;;;;;;;2.70;1.92;;;;;;;24.86;80.62;98630.53;5090746;28;20040;-73
2023/08/06 04:59:35;;;;;;;3.30;2.08;;;;;;;24.82;80.31;98625.53;5091247;28;20044;-72
2023/08/06 05:02:03;;;;;;;3.22;1.90;;;;;;;24.83;80.32;98627.22;5090899;28;20106;-72
2023/08/06 05:04:32;;;;;;;2.70;1.70;;;;;;;24.81;80.13;98629.31;5091181;28;20051;-72
2023/08/06 05:07:01;;;;;;;2.72;1.60;;;;;;;24.79;80.29;98625.13;5091232;28;20524;-72
2023/08/06 05:09:29;;;;;;;2.67;1.60;;;;;;;24.77;80.00;98616.34;5091471;28;20060;-72
2023/08/06 05:11:58;;;;;;;2.30;1.67;;;;;;;24.75;79.96;98613.00;5090737;28;20078;-72
2023/08/06 05:14:28;;;;;;;2.38;1.60;;;;;;;24.73;79.87;98610.53;5090885;28;20070;-72
2023/08/06 05:16:57;;;;;;;1.95;1.40;;;;;;;24.72;79.53;98613.47;5090900;28;20044;-73
2023/08/06 05:19:25;;;;;;;1.80;1.27;;;;;;;24.71;80.06;98618.09;5090379;28;20147;-72
2023/08/06 05:21:53;;;;;;;1.52;1.10;;;;;;;24.68;79.68;98617.69;5090515;28;20196;-73
2023/08/06 05:24:22;;;;;;;2.50;1.65;;;;;;;24.69;79.60;98619.34;5090849;28;20476;-72
2023/08/06 05:26:50;;;;;;;1.95;1.23;;;;;;;24.68;79.49;98612.22;5090658;28;20044;-72
2023/08/06 05:29:19;;;;;;;1.65;1.08;;;;;;;24.67;79.52;98621.47;5090420;28;20040;-72
2023/08/06 05:31:48;;;;;;;1.58;1.00;;;;;;;24.65;79.71;98616.25;5090541;28;20048;-71
2023/08/06 05:34:16;;;;;;;1.58;1.17;;;;;;;24.64;79.55;98616.47;5090215;28;20177;-71
2023/08/06 05:36:46;;;;;;;2.00;1.17;;;;;;;24.63;79.26;98625.72;5090651;28;20055;-71
2023/08/06 05:39:14;;;;;;;1.60;1.17;;;;;;;24.62;78.99;98618.59;5090314;28;20079;-72
2023/08/06 05:41:42;;;;;;;2.38;1.00;;;;;;;24.60;79.05;98607.06;5090682;28;20065;-71
2023/08/06 05:44:11;;;;;;;1.17;0.93;;;;;;;24.59;79.03;98611.66;5090482;28;20048;-71
2023/08/06 05:46:39;;;;;;;1.08;0.90;;;;;;;24.58;78.98;98615.47;5090166;28;20048;-71
2023/08/06 05:49:08;;;;;;;1.83;1.10;;;;;;;24.59;79.24;98613.56;5090882;28;20369;-72
2023/08/06 05:51:37;;;;;;;1.77;1.20;;;;;;;24.58;79.11;98606.44;5093904;28;20048;-72
2023/08/06 05:54:05;;;;;;;2.60;1.10;;;;;;;24.57;78.97;98621.13;5095365;28;20048;-72
2023/08/06 05:56:33;;;;;;;1.77;1.00;;;;;;;24.55;79.36;98607.72;5095645;28;20489;-72
2023/08/06 05:59:01;;;;;;;1.17;0.82;;;;;;;24.53;79.26;98605.22;5095118;28;20514;-72
2023/08/06 06:01:30;;;;;;;1.42;0.85;;;;;;;24.53;79.04;98597.06;5094690;28;20102;-71
2023/08/06 06:03:58;;;;;;;1.33;1.00;;;;;;;24.53;79.39;98598.94;5094439;28;20048;-71
2023/08/06 06:06:27;;;;;;;1.48;0.90;;;;;;;24.51;78.73;98593.72;5096849;28;20051;-72
2023/08/06 06:08:55;;;;;;;1.10;0.90;;;;;;;24.50;79.01;98594.75;5100656;28;20473;-72
2023/08/06 06:11:24;;;;;;;1.10;0.80;;;;;;;24.49;78.63;98597.69;5094433;28;20060;-72
2023/08/06 06:13:52;;;;;;;1.15;0.95;;;;;;;24.45;78.06;98596.50;5094079;28;20044;-73
2023/08/06 06:16:21;;;;;;;1.15;0.80;;;;;;;24.42;78.31;98595.06;5094335;28;20040;-72
2023/08/06 06:18:49;;;;;;;0.98;0.80;;;;;;;24.41;78.39;98592.53;5094270;28;20067;-72
2023/08/06 06:21:17;;;;;;;1.35;0.90;;;;;;;24.41;78.64;98596.09;5094165;28;20044;-72
2023/08/06 06:23:47;;;;;;;0.88;0.77;;;;;;;24.39;78.67;98592.75;5094397;28;20563;-72
2023/08/06 06:26:15;;;;;;;0.60;0.60;;;;;;;24.40;78.72;98599.88;5094016;28;20052;-72
2023/08/06 06:28:43;;;;;;;0.73;0.65;;;;;;;24.39;78.45;98600.94;5094293;28;20123;-72
2023/08/06 06:31:12;;;;;;;0.60;0.60;;;;;;;24.41;78.23;98606.16;5094103;28;20357;-72
2023/08/06 06:33:40;;;;;;;0.88;0.60;;;;;;;24.41;78.10;98608.88;5094029;28;20468;-69
2023/08/06 06:36:09;;;;;;;0.90;0.63;;;;;;;24.40;77.86;98627.13;5093629;28;20629;-72
2023/08/06 06:38:38;;;;;;;0.65;0.60;;;;;;;24.38;77.84;98623.78;5093670;28;20135;-72
2023/08/06 06:41:08;;;;;;;0.80;0.60;;;;;;;24.37;78.41;98624.84;5093589;28;20071;-73
2023/08/06 06:43:37;;;;;;;1.42;0.60;;;;;;;24.36;78.35;98631.34;5093810;28;20048;-73
2023/08/06 06:46:05;;;;;;;0.50;0.50;;;;;;;24.34;78.13;98628.00;5093861;28;20474;-72
2023/08/06 06:48:34;;;;;;;0.40;0.40;;;;;;;24.35;77.52;98628.84;5093856;28;20121;-72
2023/08/06 06:51:02;;;;;;;0.63;0.40;;;;;;;24.33;77.20;98631.81;5093452;28;20455;-70
2023/08/06 06:53:31;;;;;;;0.50;0.40;;;;;;;24.31;77.15;98617.53;5093476;28;20416;-72
2023/08/06 06:56:03;;;;;;;1.05;0.60;;;;;;;24.28;77.23;98617.94;5093387;28;20056;-72
2023/08/06 06:58:36;;;;;;;1.27;0.60;;;;;;;24.28;77.18;98612.50;5093572;28;20044;-70
2023/08/06 07:01:05;;;;;;;0.80;0.32;;;;;;;24.26;77.16;98610.00;5093202;28;20051;-71
2023/08/06 07:03:33;;;;;;;0.75;0.55;;;;;;;24.24;77.13;98603.94;5093369;28;20084;-71
2023/08/06 07:06:01;;;;;;;0.75;0.50;;;;;;;24.24;77.55;98605.84;5093383;28;20056;-71
2023/08/06 07:08:30;;;;;;;0.75;0.60;;;;;;;24.22;77.25;98608.78;5092783;28;20136;-72
2023/08/06 07:11:02;;;;;;;0.98;0.40;;;;;;;24.22;77.13;98616.97;5093055;28;20055;-71
2023/08/06 07:13:32;;;;;;;0.50;0.40;;;;;;;24.21;77.29;98625.31;5093048;28;20123;-72
2023/08/06 07:16:01;;;;;;;0.60;0.50;;;;;;;24.21;77.15;98630.78;5092742;28;20514;-71
2023/08/06 07:18:29;;;;;;;0.77;0.40;;;;;;;24.17;77.33;98632.28;5093128;28;20048;-72
2023/08/06 07:20:57;;;;;;;0.30;0.30;;;;;;;24.18;77.39;98650.28;5092772;28;20052;-71
2023/08/06 07:23:26;;;;;;;0.88;0.43;;;;;;;24.15;77.64;98654.28;5092423;28;20481;-71
2023/08/06 07:25:55;;;;;;;0.65;0.50;;;;;;;24.16;77.53;98655.13;5093075;28;20044;-70
2023/08/06 07:28:23;;;;;;;0.52;0.47;;;;;;;24.17;77.51;98662.25;5093051;28;20097;-70
2023/08/06 07:30:53;;;;;;;0.90;0.40;;;;;;;24.16;77.72;98657.84;5092685;28;20223;-71
2023/08/06 07:33:21;;;;;;;0.73;0.32;;;;;;;24.16;77.78;98657.84;5092791;28;20055;-70
2023/08/06 07:35:49;;;;;;;0.73;0.45;;;;;;;24.16;77.61;98652.41;5092257;28;20048;-70
2023/08/06 07:38:17;;;;;;;0.32;0.30;;;;;;;24.12;77.44;98642.97;5092824;28;20055;-71
2023/08/06 07:40:46;;;;;;;0.40;0.40;;;;;;;24.13;77.35;98652.84;5092779;28;20058;-71
2023/08/06 07:43:14;;;;;;;0.47;0.30;;;;;;;24.10;77.29;98645.94;5092692;28;20043;-71
2023/08/06 07:45:42;;;;;;;0.55;0.35;;;;;;;24.10;77.42;98647.81;5092622;28;20460;-71
2023/08/06 07:48:12;;;;;;;1.23;0.30;;;;;;;24.09;77.34;98640.69;5093874;28;20056;-72
2023/08/06 07:50:40;;;;;;;0.40;0.30;;;;;;;24.09;77.32;98640.69;5096528;28;20076;-72
2023/08/06 07:53:08;;;;;;;1.60;0.50;;;;;;;24.08;77.40;98639.03;5092952;28;20105;-71
2023/08/06 07:55:36;;;;;;;0.80;0.40;;;;;;;24.07;77.21;98638.19;5092222;28;20135;-71
2023/08/06 07:58:05;;;;;;;0.30;0.30;;;;;;;24.06;77.38;98641.16;5091493;28;20101;-70
2023/08/06 08:00:33;;;;;;;1.02;0.35;;;;;;;24.06;77.53;98636.53;5091551;28;20127;-71
2023/08/06 08:03:01;;;;;;;0.20;0.20;;;;;;;24.06;77.19;98635.69;5092809;28;20040;-71
2023/08/06 08:05:31;;;;;;;0.20;0.20;;;;;;;24.04;77.16;98635.09;5091517;28;20078;-70
2023/08/06 08:07:59;;;;;;;0.30;0.30;;;;;;;24.04;77.02;98629.66;5092132;28;20064;-70
2023/08/06 08:10:27;;;;;;;0.75;0.40;;;;;;;24.04;76.79;98632.38;5092016;28;20040;-71
2023/08/06 08:12:56;;;;;;;0.40;0.40;;;;;;;24.02;76.87;98632.56;5091457;28;20047;-70
2023/08/06 08:15:26;;;;;;;0.20;0.20;;;;;;;23.99;77.16;98639.28;5091851;28;20048;-70
2023/08/06 08:17:54;;;;;;;0.30;0.25;;;;;;;24.01;76.72;98641.78;5092318;28;20047;-67
2023/08/06 08:20:22;;;;;;;0.60;0.30;;;;;;;24.00;77.19;98640.13;5092129;28;20076;-68
2023/08/06 08:22:52;;;;;;;0.10;0.10;;;;;;;23.99;77.02;98639.28;5092108;28;20083;-71
2023/08/06 08:25:20;;;;;;;0.20;0.20;;;;;;;24.00;76.71;98648.28;5092365;28;20469;-72
2023/08/06 08:27:48;;;;;;;2.83;0.40;;;;;;;23.97;76.82;98665.91;5090148;28;20606;-72
2023/08/06 08:30:16;;;;;;;0.55;0.30;;;;;;;23.97;76.78;98676.78;5091289;28;20546;-72
2023/08/06 08:32:45;;;;;;;0.50;0.30;;;;;;;23.98;76.64;98677.63;5091680;28;20051;-71
2023/08/06 08:35:13;;;;;;;0.80;0.60;;;;;;;23.98;76.92;98666.75;5091743;28;20135;-72
2023/08/06 08:37:41;;;;;;;0.80;0.40;;;;;;;23.99;76.86;98655.63;5091256;28;20048;-71
2023/08/06 08:40:12;;;;;;;1.63;0.50;;;;;;;23.99;77.05;98654.78;5091227;28;20433;-72
2023/08/06 08:42:40;;;;;;;0.93;0.52;;;;;;;23.99;77.09;98665.69;5091407;28;20051;-71
2023/08/06 08:45:13;;;;;;;1.08;0.57;;;;;;;23.98;77.10;98662.13;5091500;28;20406;-71
2023/08/06 08:47:42;;;;;;;1.17;0.63;;;;;;;24.00;76.92;98675.53;5090124;28;20043;-69
2023/08/06 08:50:13;;;;;;;0.85;0.50;;;;;;;23.99;76.99;98677.41;5091464;28;20503;-72
2023/08/06 08:52:41;;;;;;;1.95;0.70;;;;;;;24.01;77.09;98670.91;5091302;28;20075;-71
2023/08/06 08:55:11;;;;;;;0.77;0.38;;;;;;;23.98;76.90;98673.03;5090960;28;20082;-72
2023/08/06 08:57:39;;;;;;;0.63;0.32;;;;;;;23.98;76.81;98661.28;5091233;28;20055;-71
2023/08/06 09:00:08;;;;;;;0.55;0.45;;;;;;;23.98;77.09;98659.41;5091407;28;20032;-71
2023/08/06 09:02:38;;;;;;;1.00;0.40;;;;;;;23.99;76.64;98661.06;5091189;28;20051;-71
2023/08/06 09:05:08;;;;;;;0.60;0.40;;;;;;;23.98;76.44;98664.00;5091276;28;20079;-70
2023/08/06 09:07:42;;;;;;;0.45;0.40;;;;;;;23.97;76.31;98655.00;5091106;28;20055;-70
2023/08/06 09:10:15;;;;;;;1.10;0.63;;;;;;;23.97;76.28;98659.63;5091220;28;20052;-70
2023/08/06 09:12:44;;;;;;;1.63;0.60;;;;;;;23.95;75.79;98640.78;5090923;28;20416;-70
2023/08/06 09:15:13;;;;;;;1.55;0.63;;;;;;;23.94;75.38;98650.00;5091188;28;20602;-69
2023/08/06 09:17:41;;;;;;;1.00;0.40;;;;;;;23.95;75.15;98651.69;5091199;28;20571;-69
2023/08/06 09:20:11;;;;;;;1.88;0.73;;;;;;;23.97;74.96;98643.28;5090772;28;20048;-67
2023/08/06 09:22:40;;;;;;;1.83;0.77;;;;;;;23.98;74.71;98639.50;5091341;28;20076;-68
2023/08/06 09:25:10;;;;;;;1.70;0.75;;;;;;;24.01;74.87;98643.66;5090356;28;20044;-68
2023/08/06 09:27:40;;;;;;;2.28;0.75;;;;;;;24.02;74.67;98661.69;5090801;28;20389;-68
2023/08/06 09:30:09;;;;;;;1.75;0.75;;;;;;;24.06;74.61;98652.03;5090775;28;20055;-68
2023/08/06 09:32:48;;;;;;;3.00;0.82;;;;;;;24.05;74.47;98662.09;5090353;28;20431;-71
2023/08/06 09:35:20;;;;;;;3.20;0.60;;;;;;;24.03;74.10;98666.06;5090905;28;20054;-73
2023/08/06 09:37:48;;;;;;;1.98;0.40;;;;;;;24.01;74.09;98679.06;5090676;28;20123;-71
2023/08/06 09:40:28;;;;;;;1.13;0.50;;;;;;;23.97;73.94;98686.84;5089382;28;20460;-68
2023/08/06 09:42:58;;;;;;;1.75;0.50;;;;;;;23.95;74.03;98692.53;5088937;28;20136;-68
2023/08/06 09:45:32;;;;;;;7.55;1.08;;;;;;;23.96;74.24;98688.75;5090014;28;20476;-69
2023/08/06 09:48:00;;;;;;;4.38;0.82;;;;;;;23.97;73.97;98697.75;5090209;28;20123;-68
2023/08/06 09:50:31;;;;;;;4.45;0.65;;;;;;;23.99;74.13;98696.47;5090075;28;20048;-68
2023/08/06 09:53:00;;;;;;;3.55;0.82;;;;;;;24.01;74.51;98695.41;5089834;28;20086;-68
2023/08/06 09:55:28;;;;;;;1.15;0.60;;;;;;;24.03;74.34;98696.03;5089897;28;20574;-66
2023/08/06 09:57:59;;;;;;;2.78;0.80;;;;;;;24.05;74.48;98710.28;5090273;28;20101;-67
2023/08/06 10:00:30;;;;;;;3.85;0.73;;;;;;;24.04;74.60;98714.06;5089795;28;20040;-68
2023/08/06 10:03:01;;;;;;;3.55;0.93;;;;;;;24.06;74.96;98711.97;5090132;28;20144;-71
2023/08/06 10:05:32;;;;;;;2.67;0.80;;;;;;;24.05;74.72;98713.84;5090262;28;20052;-71
2023/08/06 10:08:02;;;;;;;3.85;0.98;;;;;;;24.06;74.79;98717.41;5089856;28;20048;-69
2023/08/06 10:53:08;;;;;;;2.97;1.00;;;;;;;23.76;71.93;98744.31;4880382;29;20057;-69
2023/08/06 10:55:38;;;;;;;1.45;0.90;;;;;;;23.73;71.55;98753.72;4880240;29;20156;-70
2023/08/06 10:58:06;;;;;;;2.35;0.85;;;;;;;23.69;71.96;98753.31;4880334;29;20072;-69
2023/08/06 11:00:34;;;;;;;3.10;0.70;;;;;;;23.68;71.79;98748.94;4880460;29;20056;-69
2023/08/06 11:03:04;;;;;;;1.33;0.70;;;;;;;23.69;71.48;98753.31;4880248;29;20410;-68
2023/08/06 11:05:32;;;;;;;0.80;0.47;;;;;;;23.68;71.11;98765.28;4879958;29;20045;-67
2023/08/06 11:08:00;;;;;;;2.63;0.68;;;;;;;23.67;71.16;98752.72;4879877;29;20109;-71
2023/08/06 11:10:30;;;;;;;1.67;0.57;;;;;;;23.66;70.64;98747.50;4880522;29;20056;-70
2023/08/06 11:13:02;;;;;;;1.92;0.63;;;;;;;23.62;70.02;98757.09;4880212;29;20052;-70
2023/08/06 11:15:32;;;;;;;1.08;0.43;;;;;;;23.59;70.11;98765.72;4880256;29;20112;-70
2023/08/06 11:18:00;;;;;;;0.43;0.38;;;;;;;23.55;69.68;98762.56;4879924;29;20060;-72
2023/08/06 11:20:29;;;;;;;1.10;0.50;;;;;;;23.51;69.41;98764.00;4880170;29;20060;-73
2023/08/06 11:22:57;;;;;;;1.05;0.32;;;;;;;23.51;70.15;98763.16;4880405;29;20053;-71
2023/08/06 11:25:25;;;;;;;1.55;0.50;;;;;;;23.51;69.93;98774.06;4879959;29;20053;-72
2023/08/06 11:27:55;;;;;;;0.82;0.43;;;;;;;23.48;69.58;98769.03;4878710;29;20482;-72
2023/08/06 11:30:23;;;;;;;0.98;0.50;;;;;;;23.48;69.53;98750.84;4879647;29;20136;-72
2023/08/06 11:32:51;;;;;;;1.60;0.40;;;;;;;23.46;69.59;98749.38;4879872;29;20061;-72
2023/08/06 11:35:20;;;;;;;1.88;0.60;;;;;;;23.47;69.44;98745.59;4880029;29;20379;-71
2023/08/06 11:37:52;;;;;;;0.60;0.43;;;;;;;23.46;69.53;98747.50;4878524;29;20060;-72
2023/08/06 11:40:21;;;;;;;0.47;0.40;;;;;;;23.47;69.68;98756.50;4880028;29;20055;-72
2023/08/06 11:42:53;;;;;;;0.68;0.47;;;;;;;23.46;69.54;98766.53;4879744;29;20097;-72
2023/08/06 11:45:25;;;;;;;0.17;0.17;;;;;;;23.45;69.41;98764.00;4879412;29;20049;-73
2023/08/06 11:47:53;;;;;;;1.63;0.50;;;;;;;23.45;69.29;98764.00;4879022;29;20088;-72
2023/08/06 11:50:25;;;;;;;1.42;0.30;;;;;;;23.43;69.42;98764.22;4879545;29;20053;-73
2023/08/06 11:52:58;;;;;;;1.65;0.70;;;;;;;23.43;69.24;98778.66;4885607;29;20056;-72
2023/08/06 11:55:28;;;;;;;0.47;0.30;;;;;;;23.41;69.35;98771.75;4898295;29;20101;-74
2023/08/06 11:57:56;;;;;;;2.20;0.52;;;;;;;23.40;69.23;98781.81;4881394;29;20391;-73
2023/08/06 12:00:27;;;;;;;0.40;0.38;;;;;;;23.37;68.86;98768.63;4879321;29;20045;-73
2023/08/06 12:02:55;;;;;;;0.47;0.22;;;;;;;23.37;68.73;98771.34;4879440;29;20049;-70
2023/08/06 12:05:24;;;;;;;13.98;1.00;;;;;;;23.42;68.42;98771.53;4879177;29;20092;-75
2023/08/06 12:07:56;;;;;;;9.50;1.25;;;;;;;23.45;67.82;98774.88;4879446;29;20088;-72
2023/08/06 12:10:26;;;;;;;7.57;1.30;;;;;;;23.41;67.97;98769.88;4879291;29;20049;-73
2023/08/06 12:12:55;;;;;;;7.28;0.90;;;;;;;23.40;68.12;98773.66;4879050;29;20080;-73
2023/08/06 12:15:24;;;;;;;11.25;1.27;;;;;;;23.36;68.23;98777.84;4879278;29;20056;-72
2023/08/06 12:17:53;;;;;;;4.25;0.70;;;;;;;23.34;67.91;98803.56;4878747;29;20743;-72
2023/08/06 12:20:22;;;;;;;28.75;2.72;;;;;;;23.30;68.13;98789.56;4879099;29;20083;-74
2023/08/06 12:22:50;;;;;;;9.10;1.27;;;;;;;23.28;68.18;98794.38;4879076;29;20065;-73
2023/08/06 12:25:18;;;;;;;16.95;2.05;;;;;;;23.32;68.51;98806.50;4879006;29;20049;-72
2023/08/06 12:27:48;;;;;;;10.52;1.55;;;;;;;23.31;68.46;98807.56;4879244;29;20060;-72